Al Mukalla, Yemen
Current Conditions -  °F | °C
As of 11:00 PM on Saturday 20 Dec 2014 (Local Time) from OYRN Reporting Station
Clear Clear  
Wind Chill: 72°   Ceiling: Unl
Heat Index: 72°   Visibility: 5mi
Dew Point: 61°   Wind: 5mph
Humidity: 69%   Direction: 330°NNW
Pressure: 30.03"   Gusts: NA
Location:  14.54°N, 49.13°E
Report Text: OYRN 202000Z 33004KT 8000 NSC 22/16 Q1017
Loading
Personal Weather Stations






























Interactive Weather Map New forecast layout! Learn more

10-Day Weather Forecast

Advertisements
Track Severe Weather on mobile